createdAt,value
2024-03-14T00:00:18.582Z,9.00
2024-03-14T00:01:22.829Z,9.00
2024-03-14T00:02:24.704Z,9.00
2024-03-14T00:03:29.439Z,9.00
2024-03-14T00:04:32.233Z,9.00
2024-03-14T00:05:34.091Z,9.00
2024-03-14T00:06:36.543Z,9.00
2024-03-14T00:07:38.490Z,9.00
2024-03-14T00:08:40.923Z,9.00
2024-03-14T00:09:42.765Z,8.90
2024-03-14T00:10:45.394Z,8.90
2024-03-14T00:11:47.543Z,8.90
2024-03-14T00:12:49.440Z,8.80
2024-03-14T00:13:51.246Z,8.80
2024-03-14T00:14:53.100Z,8.80
2024-03-14T00:15:56.461Z,8.80
2024-03-14T00:16:58.344Z,8.70
2024-03-14T00:18:05.798Z,8.70
2024-03-14T00:19:08.132Z,8.70
2024-03-14T00:20:13.260Z,8.70
2024-03-14T00:21:15.809Z,8.70
2024-03-14T00:22:20.594Z,8.70
2024-03-14T00:23:24.530Z,8.80
2024-03-14T00:24:26.408Z,8.70
2024-03-14T00:25:28.261Z,8.70
2024-03-14T00:26:31.590Z,8.80
2024-03-14T00:27:33.634Z,8.80
2024-03-14T00:28:36.521Z,8.80
2024-03-14T00:29:38.394Z,8.80
2024-03-14T00:30:40.985Z,8.80
2024-03-14T00:31:42.950Z,8.70
2024-03-14T00:32:45.654Z,8.70
2024-03-14T00:33:47.682Z,8.70
2024-03-14T00:34:49.601Z,8.70
2024-03-14T00:35:51.477Z,8.70
2024-03-14T00:36:55.361Z,8.70
2024-03-14T00:37:57.220Z,8.80
2024-03-14T00:39:00.165Z,8.80
2024-03-14T00:40:02.084Z,8.80
2024-03-14T00:41:05.012Z,8.80
2024-03-14T00:42:07.810Z,8.80
2024-03-14T00:43:09.776Z,8.80
2024-03-14T00:44:11.732Z,8.80
2024-03-14T00:45:16.792Z,8.80
2024-03-14T00:46:18.866Z,8.90
2024-03-14T00:47:21.517Z,8.80
2024-03-14T00:48:23.547Z,8.80
2024-03-14T00:49:25.582Z,8.80
2024-03-14T00:50:27.427Z,8.80
2024-03-14T00:51:29.446Z,8.80
2024-03-14T00:52:31.339Z,8.80
2024-03-14T00:53:33.249Z,8.80
2024-03-14T00:54:35.358Z,8.80
2024-03-14T00:55:37.379Z,8.80
2024-03-14T00:56:39.226Z,8.70
2024-03-14T00:57:41.148Z,8.70
2024-03-14T00:58:43.043Z,8.70
2024-03-14T00:59:44.950Z,8.70
2024-03-14T01:00:46.789Z,8.80
2024-03-14T01:01:48.607Z,8.80
2024-03-14T01:02:55.047Z,8.80
2024-03-14T01:03:57.662Z,8.80
2024-03-14T01:05:00.686Z,8.80
2024-03-14T01:06:02.563Z,8.80
2024-03-14T01:07:04.798Z,8.80
2024-03-14T01:08:10.666Z,8.80
2024-03-14T01:09:14.439Z,8.80
2024-03-14T01:10:16.759Z,8.80
2024-03-14T01:11:21.860Z,8.80
2024-03-14T01:12:23.738Z,8.80
2024-03-14T01:13:26.925Z,8.80
2024-03-14T01:14:28.912Z,8.80
2024-03-14T01:15:31.404Z,8.80
2024-03-14T01:16:34.132Z,8.80
2024-03-14T01:17:36.484Z,8.80
2024-03-14T01:18:40.831Z,8.70
2024-03-14T01:19:43.073Z,8.70
2024-03-14T01:20:45.106Z,8.70
2024-03-14T01:21:47.063Z,8.70
2024-03-14T01:22:50.137Z,8.70
2024-03-14T01:23:52.099Z,8.70
2024-03-14T01:24:54.579Z,8.70
2024-03-14T01:25:56.412Z,8.70
2024-03-14T01:26:59.022Z,8.70
2024-03-14T01:28:01.128Z,8.70
2024-03-14T01:29:02.931Z,8.80
2024-03-14T01:30:05.428Z,8.80
2024-03-14T01:31:07.373Z,8.70
2024-03-14T01:32:10.603Z,8.80
2024-03-14T01:33:12.612Z,8.70
2024-03-14T01:34:14.492Z,8.70
2024-03-14T01:35:16.365Z,8.70
2024-03-14T01:36:18.347Z,8.70
2024-03-14T01:37:21.774Z,8.70
2024-03-14T01:38:23.635Z,8.70
2024-03-14T01:39:25.586Z,8.60
2024-03-14T01:40:28.029Z,8.70
2024-03-14T01:41:29.854Z,8.60
2024-03-14T01:42:33.170Z,8.60
2024-03-14T01:43:35.054Z,8.60
2024-03-14T01:44:46.098Z,8.60
2024-03-14T01:45:47.996Z,8.60
2024-03-14T01:46:49.839Z,8.60
2024-03-14T01:47:51.732Z,8.60
2024-03-14T01:48:53.982Z,8.60
2024-03-14T01:49:57.100Z,8.60
2024-03-14T01:50:58.959Z,8.60
2024-03-14T01:52:00.797Z,8.60
2024-03-14T01:53:02.642Z,8.60
2024-03-14T01:54:04.533Z,8.60
2024-03-14T01:55:09.769Z,8.60
2024-03-14T01:56:11.621Z,8.60
2024-03-14T01:57:13.925Z,8.60
2024-03-14T01:58:18.802Z,8.60
2024-03-14T01:59:21.152Z,8.60
2024-03-14T02:00:30.858Z,8.60
2024-03-14T02:01:32.989Z,8.60
2024-03-14T02:02:36.699Z,8.70
2024-03-14T02:03:38.765Z,8.60
2024-03-14T02:04:53.398Z,8.60
2024-03-14T02:06:08.331Z,8.60
2024-03-14T02:07:15.050Z,8.60
2024-03-14T02:08:17.073Z,8.60
2024-03-14T02:09:23.686Z,8.60
2024-03-14T02:10:26.784Z,8.60
2024-03-14T02:11:28.796Z,8.60
2024-03-14T02:12:30.654Z,8.60
2024-03-14T02:13:32.541Z,8.60
2024-03-14T02:14:34.898Z,8.60
2024-03-14T02:15:36.949Z,8.60
2024-03-14T02:16:39.002Z,8.60
2024-03-14T02:17:41.011Z,8.50
2024-03-14T02:18:43.678Z,8.50
2024-03-14T02:19:45.624Z,8.50
2024-03-14T02:20:47.896Z,8.50
2024-03-14T02:21:49.959Z,8.50
2024-03-14T02:22:52.956Z,8.50
2024-03-14T02:23:54.833Z,8.50
2024-03-14T02:24:57.143Z,8.50
2024-03-14T02:25:59.069Z,8.50
2024-03-14T02:27:05.603Z,8.50
2024-03-14T02:28:08.162Z,8.50
2024-03-14T02:29:10.228Z,8.50
2024-03-14T02:30:12.648Z,8.50
2024-03-14T02:31:14.562Z,8.50
2024-03-14T02:32:16.439Z,8.50
2024-03-14T02:33:18.313Z,8.50
2024-03-14T02:34:20.737Z,8.50
2024-03-14T02:35:22.686Z,8.50
2024-03-14T02:36:24.615Z,8.50
2024-03-14T02:37:26.488Z,8.50
2024-03-14T02:38:28.591Z,8.50
2024-03-14T02:39:33.277Z,8.50
2024-03-14T02:40:36.273Z,8.50
2024-03-14T02:41:38.312Z,8.50
2024-03-14T02:42:40.401Z,8.50
2024-03-14T02:43:42.978Z,8.50
2024-03-14T02:44:45.248Z,8.50
2024-03-14T02:45:48.009Z,8.50
2024-03-14T02:46:52.772Z,8.50
2024-03-14T02:47:54.950Z,8.50
2024-03-14T02:48:56.796Z,8.50
2024-03-14T02:49:58.729Z,8.50
2024-03-14T02:51:01.917Z,8.50
2024-03-14T02:52:04.132Z,8.50
2024-03-14T02:53:06.102Z,8.50
2024-03-14T02:54:08.002Z,8.50
2024-03-14T02:55:11.104Z,8.50
2024-03-14T02:56:13.186Z,8.50
2024-03-14T02:57:15.189Z,8.50
2024-03-14T02:58:17.198Z,8.40
2024-03-14T02:59:20.369Z,8.50
2024-03-14T03:00:23.538Z,8.40
2024-03-14T03:01:25.437Z,8.40
2024-03-14T03:02:27.355Z,8.40
2024-03-14T03:03:29.236Z,8.40
2024-03-14T03:04:32.366Z,8.40
2024-03-14T03:05:34.432Z,8.40
2024-03-14T03:06:37.830Z,8.40
2024-03-14T03:07:39.743Z,8.40
2024-03-14T03:08:43.886Z,8.40
2024-03-14T03:09:47.268Z,8.30
2024-03-14T03:10:49.101Z,8.30
2024-03-14T03:11:51.320Z,8.30
2024-03-14T03:12:53.364Z,8.20
2024-03-14T03:13:56.488Z,8.20
2024-03-14T03:14:58.635Z,8.20
2024-03-14T03:16:00.680Z,8.10
2024-03-14T03:17:02.602Z,8.10
2024-03-14T03:18:04.825Z,8.00
2024-03-14T03:19:06.910Z,8.00
2024-03-14T03:20:12.823Z,8.00
2024-03-14T03:21:15.158Z,7.90
2024-03-14T03:22:17.397Z,7.90
2024-03-14T03:23:20.137Z,7.90
2024-03-14T03:24:22.044Z,7.90
2024-03-14T03:25:24.854Z,7.90
2024-03-14T03:26:26.923Z,7.90
2024-03-14T03:27:28.895Z,7.80
2024-03-14T03:28:31.477Z,7.80
2024-03-14T03:29:33.338Z,7.90
2024-03-14T03:30:35.304Z,7.90
2024-03-14T03:31:39.813Z,7.80
2024-03-14T03:32:42.398Z,7.80
2024-03-14T03:33:44.324Z,7.80
2024-03-14T03:34:46.173Z,7.70
2024-03-14T03:35:48.308Z,7.80
2024-03-14T03:36:51.539Z,7.70
2024-03-14T03:37:53.468Z,7.70
2024-03-14T03:38:55.515Z,7.70
2024-03-14T03:39:58.035Z,7.70
2024-03-14T03:41:00.511Z,7.70
2024-03-14T03:42:03.373Z,7.70
2024-03-14T03:43:05.283Z,7.70
2024-03-14T03:44:07.182Z,7.70
2024-03-14T03:45:11.831Z,7.70
2024-03-14T03:46:14.293Z,7.70
2024-03-14T03:47:18.809Z,7.70
2024-03-14T03:48:20.757Z,7.60
2024-03-14T03:49:22.883Z,7.60
2024-03-14T03:50:25.060Z,7.70
2024-03-14T03:51:27.025Z,7.70
2024-03-14T03:52:28.970Z,7.70
2024-03-14T03:53:31.071Z,7.70
2024-03-14T03:54:32.973Z,7.70
2024-03-14T03:55:34.848Z,7.70
2024-03-14T03:56:36.715Z,7.70
2024-03-14T03:57:39.966Z,7.60
2024-03-14T03:58:44.006Z,7.60
2024-03-14T03:59:46.158Z,7.60
2024-03-14T04:00:48.051Z,7.60
2024-03-14T04:01:49.865Z,7.50
2024-03-14T04:02:51.751Z,7.50
2024-03-14T04:03:53.610Z,7.50
2024-03-14T04:04:59.043Z,7.50
2024-03-14T04:06:03.735Z,7.50
2024-03-14T04:07:05.690Z,7.60
2024-03-14T04:08:07.799Z,7.50
2024-03-14T04:09:16.380Z,7.50
2024-03-14T04:10:18.474Z,7.50
2024-03-14T04:11:20.491Z,7.50
2024-03-14T04:12:22.421Z,7.50
2024-03-14T04:13:24.464Z,7.50
2024-03-14T04:14:26.841Z,7.50
2024-03-14T04:15:31.914Z,7.50
2024-03-14T04:16:36.035Z,7.50
2024-03-14T04:17:39.066Z,7.50
2024-03-14T04:18:41.092Z,7.50
2024-03-14T04:19:47.206Z,7.50
2024-03-14T04:20:49.268Z,7.50
2024-03-14T04:21:51.179Z,7.50
2024-03-14T04:22:54.924Z,7.50
2024-03-14T04:23:59.963Z,7.50
2024-03-14T04:25:04.696Z,7.50
2024-03-14T04:26:10.581Z,7.50
2024-03-14T04:27:12.529Z,7.50
2024-03-14T04:28:14.462Z,7.50
2024-03-14T04:29:17.232Z,7.50
2024-03-14T04:30:22.603Z,7.50
2024-03-14T04:31:24.477Z,7.50
2024-03-14T04:32:26.317Z,7.50
2024-03-14T04:33:28.417Z,7.50
2024-03-14T04:34:30.307Z,7.50
2024-03-14T04:35:32.429Z,7.50
2024-03-14T04:36:34.820Z,7.50
2024-03-14T04:37:39.702Z,7.50
2024-03-14T04:38:41.567Z,7.50
2024-03-14T04:39:43.399Z,7.50
2024-03-14T04:40:45.274Z,7.50
2024-03-14T04:41:47.653Z,7.50
2024-03-14T04:42:59.243Z,7.50
2024-03-14T04:44:01.168Z,7.50
2024-03-14T04:45:03.390Z,7.50
2024-03-14T04:46:05.213Z,7.50
2024-03-14T04:47:11.240Z,7.60
2024-03-14T04:48:13.253Z,7.60
2024-03-14T04:49:15.274Z,7.60
2024-03-14T04:50:20.450Z,7.60
2024-03-14T04:51:23.425Z,7.50
2024-03-14T04:52:25.345Z,7.60
2024-03-14T04:53:27.894Z,7.60
2024-03-14T04:54:29.808Z,7.60
2024-03-14T04:55:33.355Z,7.60
2024-03-14T04:56:35.385Z,7.50
2024-03-14T04:57:37.975Z,7.50
2024-03-14T04:58:40.047Z,7.50
2024-03-14T04:59:42.014Z,7.50
2024-03-14T05:00:45.399Z,7.40
2024-03-14T05:01:47.625Z,7.50
2024-03-14T05:02:53.475Z,7.50
2024-03-14T05:03:55.452Z,7.40
2024-03-14T05:04:58.665Z,7.50
2024-03-14T05:06:00.858Z,7.50
2024-03-14T05:07:02.992Z,7.50
2024-03-14T05:08:05.067Z,7.50
2024-03-14T05:09:10.322Z,7.50
2024-03-14T05:10:15.578Z,7.50
2024-03-14T05:11:17.682Z,7.50
2024-03-14T05:12:19.619Z,7.50
2024-03-14T05:13:21.523Z,7.50
2024-03-14T05:14:23.545Z,7.50
2024-03-14T05:15:25.701Z,7.50
2024-03-14T05:16:27.632Z,7.50
2024-03-14T05:17:30.218Z,7.50
2024-03-14T05:18:33.229Z,7.40
2024-03-14T05:19:35.792Z,7.40
2024-03-14T05:20:38.057Z,7.50
2024-03-14T05:21:39.904Z,7.40
2024-03-14T05:22:42.023Z,7.50
2024-03-14T05:23:44.545Z,7.50
2024-03-14T05:24:47.058Z,7.50
2024-03-14T05:25:49.161Z,7.50
2024-03-14T05:26:51.097Z,7.50
2024-03-14T05:27:53.405Z,7.50
2024-03-14T05:28:55.324Z,7.50
2024-03-14T05:29:57.225Z,7.50
2024-03-14T05:30:59.062Z,7.50
2024-03-14T05:32:00.934Z,7.50
2024-03-14T05:33:03.053Z,7.50
2024-03-14T05:34:05.104Z,7.50
2024-03-14T05:35:07.284Z,7.50
2024-03-14T05:36:09.197Z,7.50
2024-03-14T05:37:11.070Z,7.50
2024-03-14T05:38:14.348Z,7.50
2024-03-14T05:39:16.623Z,7.50
2024-03-14T05:40:18.520Z,7.50
2024-03-14T05:41:20.505Z,7.50
2024-03-14T05:42:22.383Z,7.50
2024-03-14T05:43:24.494Z,7.50
2024-03-14T05:44:28.462Z,7.50
2024-03-14T05:45:35.382Z,7.50
2024-03-14T05:46:37.430Z,7.50
2024-03-14T05:47:40.884Z,7.60
2024-03-14T05:48:43.499Z,7.50
2024-03-14T05:49:45.532Z,7.50
2024-03-14T05:50:48.011Z,7.50
2024-03-14T05:51:50.723Z,7.50
2024-03-14T05:52:53.295Z,7.60
2024-03-14T05:53:55.191Z,7.50
2024-03-14T05:54:57.037Z,7.50
2024-03-14T05:56:03.990Z,7.50
2024-03-14T05:57:06.161Z,7.50
2024-03-14T05:58:08.169Z,7.50
2024-03-14T05:59:10.003Z,7.50
2024-03-14T06:00:13.163Z,7.50
2024-03-14T06:01:18.252Z,7.60
2024-03-14T06:02:20.242Z,7.50
2024-03-14T06:03:22.859Z,7.60
2024-03-14T06:04:24.954Z,7.60
2024-03-14T06:05:29.370Z,7.60
2024-03-14T06:06:31.732Z,7.60
2024-03-14T06:07:33.581Z,7.60
2024-03-14T06:08:35.347Z,7.60
2024-03-14T06:09:43.417Z,7.60
2024-03-14T06:10:45.333Z,7.60
2024-03-14T06:11:47.213Z,7.60
2024-03-14T06:12:49.362Z,7.60
2024-03-14T06:13:51.938Z,7.60
2024-03-14T06:14:53.794Z,7.60
2024-03-14T06:16:58.841Z,7.60
2024-03-14T06:18:00.882Z,7.60
2024-03-14T06:19:02.872Z,7.60
2024-03-14T06:20:08.630Z,7.60
2024-03-14T06:21:10.649Z,7.60
2024-03-14T06:22:15.813Z,7.60
2024-03-14T06:23:17.859Z,7.60
2024-03-14T06:24:19.798Z,7.60
2024-03-14T06:25:23.058Z,7.60
2024-03-14T06:26:24.934Z,7.60
2024-03-14T06:27:26.815Z,7.60
2024-03-14T06:28:28.696Z,7.60
2024-03-14T06:29:30.564Z,7.70
2024-03-14T06:30:34.308Z,7.70
2024-03-14T06:31:36.310Z,7.70
2024-03-14T06:32:41.225Z,7.70
2024-03-14T06:33:43.406Z,7.70
2024-03-14T06:34:45.434Z,7.70
2024-03-14T06:35:47.330Z,7.70
2024-03-14T06:36:49.208Z,7.70
2024-03-14T06:37:54.890Z,7.70
2024-03-14T06:38:56.831Z,7.70
2024-03-14T06:39:58.761Z,7.70
2024-03-14T06:41:00.832Z,7.70
2024-03-14T06:42:02.797Z,7.70
2024-03-14T06:43:07.831Z,7.70
2024-03-14T06:44:09.780Z,7.70
2024-03-14T06:45:12.123Z,7.70
2024-03-14T06:46:17.017Z,7.70
2024-03-14T06:47:21.833Z,7.70
2024-03-14T06:48:23.783Z,7.70
2024-03-14T06:49:25.672Z,7.80
2024-03-14T06:50:27.546Z,7.80
2024-03-14T06:51:30.080Z,7.80
2024-03-14T06:52:32.187Z,7.80
2024-03-14T06:53:36.242Z,7.90
2024-03-14T06:54:44.977Z,7.80
2024-03-14T06:55:48.130Z,7.90
2024-03-14T06:56:50.117Z,7.90
2024-03-14T06:57:54.330Z,7.90
2024-03-14T06:58:56.228Z,7.90
2024-03-14T06:59:58.136Z,7.90
2024-03-14T07:01:00.057Z,7.90
2024-03-14T07:02:01.957Z,7.90
2024-03-14T07:03:03.973Z,7.90
2024-03-14T07:04:07.268Z,7.90
2024-03-14T07:05:18.306Z,7.90
2024-03-14T07:06:24.590Z,7.90
2024-03-14T07:07:27.658Z,7.90
2024-03-14T07:08:29.606Z,7.90
2024-03-14T07:09:31.740Z,8.00
2024-03-14T07:10:33.949Z,8.00
2024-03-14T07:11:35.820Z,8.00
2024-03-14T07:12:37.903Z,8.00
2024-03-14T07:13:39.911Z,8.00
2024-03-14T07:14:42.739Z,8.00
2024-03-14T07:15:45.262Z,8.00
2024-03-14T07:16:47.372Z,8.00
2024-03-14T07:17:49.522Z,8.00
2024-03-14T07:18:52.361Z,8.10
2024-03-14T07:19:55.990Z,8.10
2024-03-14T07:20:57.870Z,8.10
2024-03-14T07:22:00.345Z,8.10
2024-03-14T07:23:02.227Z,8.10
2024-03-14T07:24:04.591Z,8.10
2024-03-14T07:25:10.332Z,8.10
2024-03-14T07:26:14.478Z,8.10
2024-03-14T07:27:16.415Z,8.10
2024-03-14T07:28:20.219Z,8.10
2024-03-14T07:29:22.088Z,8.10
2024-03-14T07:30:26.330Z,8.10
2024-03-14T07:31:30.163Z,8.20
2024-03-14T07:32:32.786Z,8.20
2024-03-14T07:33:34.708Z,8.20
2024-03-14T07:34:36.658Z,8.20
2024-03-14T07:35:46.031Z,8.20
2024-03-14T07:36:47.921Z,8.20
2024-03-14T07:37:49.879Z,8.30
2024-03-14T07:38:52.025Z,8.30
2024-03-14T07:39:54.291Z,8.20
2024-03-14T07:40:57.314Z,8.30
2024-03-14T07:41:59.301Z,8.20
2024-03-14T07:43:01.117Z,8.20
2024-03-14T07:44:16.187Z,8.20
2024-03-14T07:45:23.773Z,8.30
2024-03-14T07:46:25.668Z,8.30
2024-03-14T07:47:27.483Z,8.30
2024-03-14T07:48:29.511Z,8.30
2024-03-14T07:49:31.640Z,8.30
2024-03-14T07:50:33.586Z,8.30
2024-03-14T07:51:35.453Z,8.30
2024-03-14T07:52:37.924Z,8.30
2024-03-14T07:53:40.317Z,8.30
2024-03-14T07:54:46.130Z,8.40
2024-03-14T07:55:47.984Z,8.40
2024-03-14T07:56:52.634Z,8.40
2024-03-14T07:57:54.567Z,8.40
2024-03-14T07:58:56.693Z,8.40
2024-03-14T07:59:58.608Z,8.40
2024-03-14T08:01:01.876Z,8.40
2024-03-14T08:02:08.444Z,8.40
2024-03-14T08:03:10.337Z,8.40
2024-03-14T08:04:14.994Z,8.40
2024-03-14T08:05:33.053Z,8.40
2024-03-14T08:06:40.856Z,8.40
2024-03-14T08:07:44.548Z,8.50
2024-03-14T08:08:46.696Z,8.40
2024-03-14T08:09:49.201Z,8.40
2024-03-14T08:10:51.069Z,8.50
2024-03-14T08:11:53.320Z,8.50
2024-03-14T08:12:58.363Z,8.50
2024-03-14T08:14:03.994Z,8.50
2024-03-14T08:15:18.116Z,8.60
2024-03-14T08:16:23.094Z,8.60
2024-03-14T08:17:25.166Z,8.60
2024-03-14T08:18:27.706Z,8.60
2024-03-14T08:19:29.741Z,8.60
2024-03-14T08:20:37.979Z,8.60
2024-03-14T08:21:41.525Z,8.60
2024-03-14T08:22:44.419Z,8.70
2024-03-14T08:23:49.840Z,8.70
2024-03-14T08:24:54.086Z,8.70
2024-03-14T08:25:56.444Z,8.80
2024-03-14T08:27:00.459Z,8.80
2024-03-14T08:28:02.374Z,8.80
2024-03-14T08:29:04.369Z,8.90
2024-03-14T08:30:07.251Z,8.90
2024-03-14T08:31:18.601Z,8.90
2024-03-14T08:32:20.747Z,8.90
2024-03-14T08:33:24.802Z,8.90
2024-03-14T08:34:29.203Z,9.00
2024-03-14T08:35:31.682Z,9.00
2024-03-14T08:36:34.694Z,9.00
2024-03-14T08:37:36.713Z,9.00
2024-03-14T08:38:39.686Z,9.00
2024-03-14T08:39:43.151Z,9.10
2024-03-14T08:40:45.238Z,9.10
2024-03-14T08:41:47.384Z,9.10
2024-03-14T08:42:53.027Z,9.10
2024-03-14T08:43:55.566Z,9.20
2024-03-14T08:44:58.826Z,9.20
2024-03-14T08:46:02.577Z,9.20
2024-03-14T08:47:04.857Z,9.20
2024-03-14T08:48:10.332Z,9.20
2024-03-14T08:49:15.599Z,9.20
2024-03-14T08:50:24.841Z,9.20
2024-03-14T08:51:28.303Z,9.30
2024-03-14T08:52:30.373Z,9.30
2024-03-14T08:53:52.244Z,9.30
2024-03-14T08:54:54.678Z,9.40
2024-03-14T08:55:57.231Z,9.40
2024-03-14T08:57:00.239Z,9.40
2024-03-14T08:58:04.507Z,9.40
2024-03-14T08:59:06.545Z,9.50
2024-03-14T09:00:09.390Z,9.50
2024-03-14T09:01:11.168Z,9.50
2024-03-14T09:02:13.191Z,9.50
2024-03-14T09:03:18.519Z,9.50
2024-03-14T09:04:21.368Z,9.50
2024-03-14T09:05:23.291Z,9.50
2024-03-14T09:06:29.891Z,9.60
2024-03-14T09:07:33.283Z,9.60
2024-03-14T09:08:37.312Z,9.70
2024-03-14T09:09:39.219Z,9.60
2024-03-14T09:10:41.383Z,9.60
2024-03-14T09:11:43.329Z,9.70
2024-03-14T09:12:46.488Z,9.70
2024-03-14T09:13:48.995Z,9.70
2024-03-14T09:14:51.700Z,9.60
2024-03-14T09:15:54.012Z,9.60
2024-03-14T09:16:55.830Z,9.70
2024-03-14T09:17:57.996Z,9.70
2024-03-14T09:19:00.498Z,9.70
2024-03-14T09:20:07.136Z,9.70
2024-03-14T09:21:10.649Z,9.70
2024-03-14T09:22:12.721Z,9.70
2024-03-14T09:23:20.654Z,9.70
2024-03-14T09:24:23.890Z,9.80
2024-03-14T09:25:30.141Z,9.80
2024-03-14T09:26:32.271Z,9.70
2024-03-14T09:27:34.414Z,9.80
2024-03-14T09:28:39.642Z,9.80
2024-03-14T09:32:10.967Z,9.90
2024-03-14T09:35:50.214Z,9.90
2024-03-14T09:36:55.102Z,9.90
2024-03-14T09:37:57.425Z,10.00
2024-03-14T09:38:59.902Z,10.00
2024-03-14T09:40:02.307Z,10.00
2024-03-14T09:41:10.031Z,10.00
2024-03-14T09:42:21.794Z,10.00
2024-03-14T09:43:24.597Z,10.00
2024-03-14T09:44:27.103Z,10.00
2024-03-14T09:45:36.684Z,10.00
2024-03-14T09:46:42.776Z,10.00
2024-03-14T09:47:46.620Z,10.00
2024-03-14T09:48:48.946Z,10.10
2024-03-14T09:49:55.367Z,10.10
2024-03-14T09:50:58.347Z,10.10
2024-03-14T09:52:00.495Z,10.10
2024-03-14T09:53:07.737Z,10.20
2024-03-14T09:54:11.648Z,10.20
2024-03-14T09:55:15.194Z,10.20
2024-03-14T09:56:17.464Z,10.20
2024-03-14T09:57:20.603Z,10.20
2024-03-14T09:58:23.226Z,10.20
2024-03-14T09:59:25.173Z,10.20
2024-03-14T10:00:27.904Z,10.30
2024-03-14T10:01:30.398Z,10.30
2024-03-14T10:02:32.827Z,10.30
2024-03-14T10:03:37.211Z,10.40
2024-03-14T10:04:39.163Z,10.40
2024-03-14T10:05:41.030Z,10.40
2024-03-14T10:06:44.121Z,10.40
2024-03-14T10:07:47.323Z,10.40
2024-03-14T10:08:49.859Z,10.40
2024-03-14T10:09:53.713Z,10.40
2024-03-14T10:10:56.002Z,10.50
2024-03-14T10:12:03.526Z,10.50
2024-03-14T10:13:05.983Z,10.40
2024-03-14T10:14:17.446Z,10.40
2024-03-14T10:15:21.738Z,10.50
2024-03-14T10:16:24.352Z,10.50
2024-03-14T10:17:27.664Z,10.50
2024-03-14T10:18:30.960Z,10.50
2024-03-14T10:19:34.121Z,10.50
2024-03-14T10:20:38.348Z,10.50
2024-03-14T10:21:40.463Z,10.60
2024-03-14T10:22:42.831Z,10.60
2024-03-14T10:23:45.838Z,10.60
2024-03-14T10:24:47.824Z,10.60
2024-03-14T10:25:55.022Z,10.60
2024-03-14T10:26:57.419Z,10.60
2024-03-14T10:28:09.075Z,10.60
2024-03-14T10:29:15.397Z,10.60
2024-03-14T10:30:19.438Z,10.70
2024-03-14T10:31:22.561Z,10.70
2024-03-14T10:32:24.969Z,10.70
2024-03-14T10:33:30.321Z,10.80
2024-03-14T10:34:33.699Z,10.80
2024-03-14T10:35:35.879Z,10.90
2024-03-14T10:36:44.981Z,11.00
2024-03-14T10:37:48.074Z,11.00
2024-03-14T10:38:54.823Z,11.10
2024-03-14T10:39:59.433Z,11.10
2024-03-14T10:41:07.328Z,11.20
2024-03-14T10:42:10.781Z,11.30
2024-03-14T10:43:14.996Z,11.30
2024-03-14T10:44:22.528Z,11.30
2024-03-14T10:45:25.379Z,11.40
2024-03-14T10:46:29.474Z,11.40
2024-03-14T10:47:34.104Z,11.50
2024-03-14T10:48:39.737Z,11.50
2024-03-14T10:49:46.976Z,11.50
2024-03-14T10:50:52.147Z,11.50
2024-03-14T10:51:54.733Z,11.60
2024-03-14T10:52:57.107Z,11.60
2024-03-14T10:54:00.810Z,11.60
2024-03-14T10:55:03.702Z,11.60
2024-03-14T10:56:07.482Z,11.60
2024-03-14T10:57:09.838Z,11.60
2024-03-14T10:58:13.035Z,11.60
2024-03-14T10:59:17.465Z,11.70
2024-03-14T11:00:21.141Z,11.70
2024-03-14T11:01:25.380Z,11.70
2024-03-14T11:02:29.025Z,11.70
2024-03-14T11:03:33.203Z,11.70
2024-03-14T11:04:35.099Z,11.70
2024-03-14T11:05:40.445Z,11.70
2024-03-14T11:06:42.493Z,11.70
2024-03-14T11:07:46.894Z,11.70
2024-03-14T11:08:53.337Z,11.70
2024-03-14T11:09:59.825Z,11.70
2024-03-14T11:11:04.098Z,11.70
2024-03-14T11:12:12.094Z,11.70
2024-03-14T11:13:19.295Z,11.70
2024-03-14T11:14:31.559Z,11.80
2024-03-14T11:15:39.455Z,11.80
2024-03-14T11:16:47.447Z,11.80
2024-03-14T11:17:52.784Z,11.80
2024-03-14T11:19:00.991Z,11.80
2024-03-14T11:20:08.625Z,11.80
2024-03-14T11:21:13.864Z,11.80
2024-03-14T11:22:22.082Z,11.80
2024-03-14T11:23:29.727Z,11.80
2024-03-14T11:24:33.309Z,11.80
2024-03-14T11:25:39.356Z,11.80
2024-03-14T11:26:46.476Z,11.90
2024-03-14T11:27:49.060Z,11.90
2024-03-14T11:29:03.829Z,11.90
2024-03-14T11:30:17.001Z,11.90
2024-03-14T11:31:19.016Z,11.90
2024-03-14T11:32:25.198Z,11.90
2024-03-14T11:33:31.561Z,11.90
2024-03-14T11:34:33.537Z,12.00
2024-03-14T11:35:46.580Z,12.00
2024-03-14T11:36:53.095Z,12.00
2024-03-14T11:37:55.865Z,12.00
2024-03-14T11:39:15.744Z,12.00
2024-03-14T11:40:17.948Z,12.00
2024-03-14T11:41:19.801Z,12.00
2024-03-14T11:42:22.470Z,12.00
2024-03-14T11:43:25.864Z,12.00
2024-03-14T11:44:31.626Z,12.00
2024-03-14T11:45:33.694Z,12.10
2024-03-14T11:46:42.634Z,12.10
2024-03-14T11:47:45.016Z,12.10
2024-03-14T11:48:49.788Z,12.10
2024-03-14T11:49:58.277Z,12.10
2024-03-14T11:51:01.005Z,12.10
2024-03-14T11:52:03.166Z,12.10
2024-03-14T11:53:07.726Z,12.10
2024-03-14T11:54:12.175Z,12.10
2024-03-14T11:55:14.558Z,12.00
2024-03-14T11:56:16.889Z,12.00
2024-03-14T11:57:20.053Z,12.00
2024-03-14T11:58:23.150Z,12.00
2024-03-14T11:59:25.449Z,12.00
2024-03-14T12:00:27.631Z,12.00
2024-03-14T12:01:41.940Z,12.00
2024-03-14T12:02:53.441Z,12.00
2024-03-14T12:03:59.238Z,12.00
2024-03-14T12:05:06.547Z,12.00
2024-03-14T12:06:10.301Z,12.10
2024-03-14T12:07:13.360Z,12.10
2024-03-14T12:08:19.574Z,12.10
2024-03-14T12:09:22.663Z,12.20
2024-03-14T12:10:25.140Z,12.30
2024-03-14T12:11:30.326Z,12.30
2024-03-14T12:12:34.115Z,12.40
2024-03-14T12:13:37.252Z,12.40
2024-03-14T12:14:39.590Z,12.50
2024-03-14T12:15:42.733Z,12.50
2024-03-14T12:16:47.197Z,12.60
2024-03-14T12:17:57.154Z,12.70
2024-03-14T12:18:59.642Z,12.70
2024-03-14T12:20:06.152Z,12.80
2024-03-14T12:21:13.918Z,12.80
2024-03-14T12:22:20.434Z,12.80
2024-03-14T12:23:25.371Z,12.80
2024-03-14T12:24:27.585Z,12.80
2024-03-14T12:25:30.915Z,12.90
2024-03-14T12:26:35.321Z,12.80
2024-03-14T12:27:39.426Z,12.80
2024-03-14T12:28:42.351Z,12.80
2024-03-14T12:29:45.335Z,12.80
2024-03-14T12:30:58.619Z,12.90
2024-03-14T12:32:01.446Z,12.80
2024-03-14T12:33:03.914Z,12.80
2024-03-14T12:34:07.661Z,12.90
2024-03-14T12:35:14.453Z,12.80
2024-03-14T12:36:20.013Z,12.80
2024-03-14T12:37:23.937Z,12.80
2024-03-14T12:38:26.855Z,12.90
2024-03-14T12:39:29.972Z,12.90
2024-03-14T12:40:33.516Z,12.90
2024-03-14T12:41:38.054Z,12.90
2024-03-14T12:42:44.354Z,12.90
2024-03-14T12:43:48.704Z,12.90
2024-03-14T12:44:50.817Z,12.90
2024-03-14T12:45:52.714Z,12.90
2024-03-14T12:46:54.745Z,12.80
2024-03-14T12:47:56.922Z,12.80
2024-03-14T12:49:00.446Z,12.80
2024-03-14T12:50:02.558Z,12.80
2024-03-14T12:51:12.224Z,12.80
2024-03-14T12:52:17.081Z,12.80
2024-03-14T12:53:23.277Z,12.90
2024-03-14T12:54:36.726Z,12.90
2024-03-14T12:55:38.788Z,12.90
2024-03-14T12:56:40.816Z,12.90
2024-03-14T12:57:45.354Z,12.90
2024-03-14T12:58:52.629Z,12.90
2024-03-14T12:59:55.310Z,12.90
2024-03-14T13:00:59.546Z,12.80
2024-03-14T13:02:02.598Z,12.80
2024-03-14T13:03:04.893Z,12.80
2024-03-14T13:04:11.576Z,12.80
2024-03-14T13:05:15.400Z,12.80
2024-03-14T13:06:22.135Z,12.80
2024-03-14T13:07:24.133Z,12.80
2024-03-14T13:08:27.228Z,12.70
2024-03-14T13:09:29.671Z,12.70
2024-03-14T13:10:36.501Z,12.70
2024-03-14T13:11:38.483Z,12.70
2024-03-14T13:12:40.600Z,12.70
2024-03-14T13:13:43.421Z,12.70
2024-03-14T13:15:03.356Z,12.60
2024-03-14T13:16:27.941Z,12.60
2024-03-14T13:17:30.127Z,12.60
2024-03-14T13:18:32.099Z,12.60
2024-03-14T13:19:34.026Z,12.60
2024-03-14T13:20:37.110Z,12.60
2024-03-14T13:21:49.529Z,12.60
2024-03-14T13:22:51.491Z,12.60
2024-03-14T13:23:54.647Z,12.70
2024-03-14T13:24:58.971Z,12.60
2024-03-14T13:26:00.881Z,12.60
2024-03-14T13:27:04.004Z,12.60
2024-03-14T13:28:06.383Z,12.60
2024-03-14T13:29:11.314Z,12.60
2024-03-14T13:30:14.612Z,12.60
2024-03-14T13:31:18.990Z,12.60
2024-03-14T13:32:22.857Z,12.70
2024-03-14T13:33:25.613Z,12.70
2024-03-14T13:34:27.769Z,12.70
2024-03-14T13:35:29.664Z,12.70
2024-03-14T13:36:38.176Z,12.70
2024-03-14T13:37:43.913Z,12.70
2024-03-14T13:38:45.863Z,12.70
2024-03-14T13:39:48.913Z,12.70
2024-03-14T13:40:52.837Z,12.70
2024-03-14T13:41:56.145Z,12.70
2024-03-14T13:42:59.249Z,12.70
2024-03-14T13:44:01.149Z,12.70
2024-03-14T13:45:03.541Z,12.80
2024-03-14T13:46:06.927Z,12.80
2024-03-14T13:47:15.968Z,12.80
2024-03-14T13:48:19.061Z,12.80
2024-03-14T13:49:21.216Z,12.90
2024-03-14T13:50:23.229Z,12.90
2024-03-14T13:51:25.207Z,12.90
2024-03-14T13:52:27.341Z,13.00
2024-03-14T13:54:35.293Z,13.00
2024-03-14T13:55:44.939Z,13.00
2024-03-14T13:56:49.056Z,13.00
2024-03-14T13:57:53.742Z,13.00
2024-03-14T13:59:02.367Z,13.00
2024-03-14T14:00:12.564Z,13.00
2024-03-14T14:01:35.128Z,13.00
2024-03-14T14:02:37.363Z,13.00
2024-03-14T14:03:40.044Z,13.00
2024-03-14T14:04:42.057Z,13.00